createdAt,value
2022-11-24T00:00:50.277Z,5.97
2022-11-24T00:01:52.256Z,5.97
2022-11-24T00:02:56.579Z,5.97
2022-11-24T00:04:00.130Z,5.97
2022-11-24T00:05:02.942Z,5.97
2022-11-24T00:06:05.982Z,5.97
2022-11-24T00:07:08.967Z,5.97
2022-11-24T00:08:12.217Z,5.96
2022-11-24T00:09:15.130Z,5.96
2022-11-24T00:10:17.209Z,5.98
2022-11-24T00:11:22.658Z,5.97
2022-11-24T00:12:24.497Z,5.97
2022-11-24T00:13:27.725Z,5.97
2022-11-24T00:14:30.681Z,5.97
2022-11-24T00:15:33.045Z,5.97
2022-11-24T00:16:37.873Z,5.98
2022-11-24T00:17:39.769Z,5.99
2022-11-24T00:18:45.797Z,5.98
2022-11-24T00:19:47.642Z,5.97
2022-11-24T00:20:53.462Z,5.97
2022-11-24T00:21:56.343Z,5.98
2022-11-24T00:22:58.413Z,5.99
2022-11-24T00:24:01.713Z,5.99
2022-11-24T00:25:04.047Z,6.00
2022-11-24T00:26:09.508Z,5.99
2022-11-24T00:27:11.444Z,6.00
2022-11-24T00:28:14.419Z,5.98
2022-11-24T00:29:16.446Z,6.00
2022-11-24T00:30:19.523Z,5.99
2022-11-24T00:31:23.758Z,6.00
2022-11-24T00:32:28.995Z,5.99
2022-11-24T00:33:31.138Z,5.98
2022-11-24T00:34:35.686Z,5.99
2022-11-24T00:35:37.955Z,6.00
2022-11-24T00:36:41.599Z,6.00
2022-11-24T00:37:43.523Z,6.00
2022-11-24T00:38:46.819Z,6.01
2022-11-24T00:39:48.833Z,6.01
2022-11-24T00:40:51.876Z,5.99
2022-11-24T00:41:53.709Z,6.00
2022-11-24T00:42:56.604Z,6.01
2022-11-24T00:43:59.230Z,6.01
2022-11-24T00:45:12.960Z,6.00
2022-11-24T00:46:15.948Z,6.00
2022-11-24T00:47:18.991Z,6.01
2022-11-24T00:48:21.809Z,6.00
2022-11-24T00:49:24.735Z,6.00
2022-11-24T00:50:28.133Z,6.01
2022-11-24T00:51:31.520Z,6.00
2022-11-24T00:52:33.481Z,6.02
2022-11-24T00:53:37.126Z,6.01
2022-11-24T00:54:39.022Z,6.01
2022-11-24T00:55:41.891Z,6.01
2022-11-24T00:56:45.049Z,6.01
2022-11-24T00:57:46.986Z,6.00
2022-11-24T00:58:50.542Z,6.02
2022-11-24T00:59:52.459Z,6.02
2022-11-24T01:00:56.199Z,6.02
2022-11-24T01:01:58.184Z,6.01
2022-11-24T01:03:01.123Z,6.01
2022-11-24T01:04:04.344Z,6.02
2022-11-24T01:05:07.944Z,6.01
2022-11-24T01:06:13.105Z,6.00
2022-11-24T01:07:16.244Z,6.00
2022-11-24T01:08:18.267Z,6.01
2022-11-24T01:09:21.195Z,6.02
2022-11-24T01:10:23.231Z,6.01
2022-11-24T01:11:28.701Z,6.01
2022-11-24T01:12:30.720Z,6.02
2022-11-24T01:13:33.618Z,6.03
2022-11-24T01:14:35.847Z,6.03
2022-11-24T01:15:39.558Z,6.02
2022-11-24T01:16:41.584Z,6.03
2022-11-24T01:17:44.587Z,6.03
2022-11-24T01:18:47.017Z,6.03
2022-11-24T01:19:50.751Z,6.02
2022-11-24T01:20:52.604Z,6.04
2022-11-24T01:21:56.935Z,6.03
2022-11-24T01:22:58.843Z,6.03
2022-11-24T01:24:01.888Z,6.05
2022-11-24T01:25:04.494Z,6.04
2022-11-24T01:26:08.175Z,6.04
2022-11-24T01:27:10.140Z,6.04
2022-11-24T01:28:13.169Z,6.05
2022-11-24T01:29:15.222Z,6.04
2022-11-24T01:30:18.639Z,6.04
2022-11-24T01:31:21.060Z,6.04
2022-11-24T01:32:24.033Z,6.04
2022-11-24T01:33:26.070Z,6.03
2022-11-24T01:34:28.987Z,6.04
2022-11-24T01:35:31.040Z,6.03
2022-11-24T01:36:34.124Z,6.04
2022-11-24T01:37:37.335Z,6.04
2022-11-24T01:38:40.248Z,6.03
2022-11-24T01:39:42.231Z,6.03
2022-11-24T01:40:45.296Z,6.03
2022-11-24T01:41:47.386Z,6.02
2022-11-24T01:42:52.246Z,6.02
2022-11-24T01:43:55.428Z,6.02
2022-11-24T01:45:31.011Z,6.02
2022-11-24T01:46:42.260Z,6.00
2022-11-24T01:47:44.525Z,6.01
2022-11-24T01:48:52.739Z,6.02
2022-11-24T01:49:59.402Z,6.02
2022-11-24T01:51:09.518Z,6.02
2022-11-24T01:52:15.346Z,6.02
2022-11-24T01:53:19.723Z,6.03
2022-11-24T01:54:25.733Z,6.02
2022-11-24T01:55:33.216Z,6.03
2022-11-24T01:56:40.603Z,6.03
2022-11-24T01:57:46.619Z,6.03
2022-11-24T01:58:51.435Z,6.03
2022-11-24T01:59:57.362Z,6.03
2022-11-24T02:01:01.679Z,6.02
2022-11-24T02:02:04.366Z,6.03
2022-11-24T02:03:09.663Z,6.02
2022-11-24T02:04:15.119Z,6.03
2022-11-24T02:05:22.458Z,6.03
2022-11-24T02:06:27.868Z,6.03
2022-11-24T02:07:31.507Z,6.03
2022-11-24T02:08:41.742Z,6.03
2022-11-24T02:09:50.020Z,6.03
2022-11-24T02:10:51.897Z,6.02
2022-11-24T02:11:55.871Z,6.04
2022-11-24T02:12:59.684Z,6.03
2022-11-24T02:14:03.109Z,6.04
2022-11-24T02:15:06.029Z,6.04
2022-11-24T02:16:11.817Z,6.04
2022-11-24T02:17:14.794Z,6.03
2022-11-24T02:18:16.683Z,6.02
2022-11-24T02:19:28.951Z,6.03
2022-11-24T02:20:30.847Z,6.03
2022-11-24T02:21:33.749Z,6.04
2022-11-24T02:22:44.396Z,6.04
2022-11-24T02:23:55.929Z,6.04
2022-11-24T02:25:06.935Z,6.04
2022-11-24T02:26:20.278Z,6.06
2022-11-24T02:27:23.598Z,6.06
2022-11-24T02:28:30.591Z,6.07
2022-11-24T02:29:32.715Z,6.05
2022-11-24T02:30:36.923Z,6.06
2022-11-24T02:31:41.720Z,6.05
2022-11-24T02:32:44.928Z,6.04
2022-11-24T02:33:48.684Z,6.04
2022-11-24T02:35:00.290Z,6.03
2022-11-24T02:36:02.167Z,6.03
2022-11-24T02:37:05.019Z,6.03
2022-11-24T02:38:06.948Z,6.03
2022-11-24T02:39:11.876Z,6.04
2022-11-24T02:40:16.603Z,6.04
2022-11-24T02:41:22.693Z,6.05
2022-11-24T02:42:27.420Z,6.04
2022-11-24T02:43:33.692Z,6.06
2022-11-24T02:44:39.564Z,6.06
2022-11-24T02:45:42.491Z,6.05
2022-11-24T02:46:44.496Z,6.05
2022-11-24T02:47:47.514Z,6.07
2022-11-24T02:48:49.425Z,6.07
2022-11-24T02:49:52.327Z,6.06
2022-11-24T02:50:54.547Z,6.08
2022-11-24T02:51:57.925Z,6.07
2022-11-24T02:52:59.864Z,6.08
2022-11-24T02:54:02.776Z,6.08
2022-11-24T02:55:05.452Z,6.09
2022-11-24T02:56:08.621Z,6.09
2022-11-24T02:57:11.075Z,6.09
2022-11-24T02:58:15.858Z,6.10
2022-11-24T02:59:17.838Z,6.09
2022-11-24T03:00:20.889Z,6.09
2022-11-24T03:01:22.800Z,6.09
2022-11-24T03:02:25.760Z,6.11
2022-11-24T03:03:28.072Z,6.12
2022-11-24T03:04:31.113Z,6.12
2022-11-24T03:05:33.230Z,6.12
2022-11-24T03:06:36.372Z,6.11
2022-11-24T03:07:38.308Z,6.11
2022-11-24T03:08:41.280Z,6.12
2022-11-24T03:09:43.226Z,6.12
2022-11-24T03:10:46.397Z,6.12
2022-11-24T03:11:48.384Z,6.09
2022-11-24T03:12:51.282Z,6.11
2022-11-24T03:13:54.498Z,6.11
2022-11-24T03:14:57.438Z,6.11
2022-11-24T03:15:59.379Z,6.10
2022-11-24T03:17:02.239Z,6.11
2022-11-24T03:18:04.269Z,6.10
2022-11-24T03:19:07.261Z,6.11
2022-11-24T03:20:10.608Z,6.13
2022-11-24T03:21:13.489Z,6.12
2022-11-24T03:22:15.482Z,6.11
2022-11-24T03:23:18.297Z,6.09
2022-11-24T03:24:20.249Z,6.10
2022-11-24T03:25:23.185Z,6.12
2022-11-24T03:26:26.452Z,6.11
2022-11-24T03:27:29.413Z,6.12
2022-11-24T03:28:31.263Z,6.11
2022-11-24T03:29:35.535Z,6.12
2022-11-24T03:30:37.959Z,6.11
2022-11-24T03:31:41.011Z,6.12
2022-11-24T03:32:43.067Z,6.13
2022-11-24T03:33:45.937Z,6.12
2022-11-24T03:34:47.861Z,6.13
2022-11-24T03:35:50.705Z,6.13
2022-11-24T03:36:52.602Z,6.12
2022-11-24T03:37:55.472Z,6.13
2022-11-24T03:38:57.382Z,6.14
2022-11-24T03:40:00.319Z,6.13
2022-11-24T03:41:02.249Z,6.13
2022-11-24T03:42:05.476Z,6.13
2022-11-24T03:43:07.342Z,6.13
2022-11-24T03:44:10.237Z,6.13
2022-11-24T03:45:45.371Z,6.14
2022-11-24T03:46:37.938Z,6.14
2022-11-24T03:47:39.890Z,6.14
2022-11-24T03:48:42.971Z,6.15
2022-11-24T03:49:45.744Z,6.15
2022-11-24T03:50:54.430Z,6.15
2022-11-24T03:51:56.342Z,6.16
2022-11-24T03:52:59.449Z,6.16
2022-11-24T03:54:01.404Z,6.15
2022-11-24T03:55:04.304Z,6.15
2022-11-24T03:56:06.808Z,6.15
2022-11-24T03:57:09.745Z,6.15
2022-11-24T03:58:11.936Z,6.15
2022-11-24T03:59:14.787Z,6.15
2022-11-24T04:00:18.516Z,6.15
2022-11-24T04:01:21.574Z,6.16
2022-11-24T04:02:23.494Z,6.15
2022-11-24T04:03:26.780Z,6.15
2022-11-24T04:04:28.788Z,6.15
2022-11-24T04:05:33.139Z,6.14
2022-11-24T04:06:35.212Z,6.15
2022-11-24T04:07:38.262Z,6.15
2022-11-24T04:08:40.339Z,6.16
2022-11-24T04:09:43.328Z,6.16
2022-11-24T04:10:45.287Z,6.16
2022-11-24T04:12:05.680Z,6.16
2022-11-24T04:13:13.388Z,6.16
2022-11-24T04:14:15.521Z,6.16
2022-11-24T04:15:21.146Z,6.16
2022-11-24T04:16:23.064Z,6.17
2022-11-24T04:17:25.979Z,6.17
2022-11-24T04:18:28.825Z,6.17
2022-11-24T04:19:30.916Z,6.18
2022-11-24T04:20:34.142Z,6.16
2022-11-24T04:21:36.171Z,6.17
2022-11-24T04:22:39.059Z,6.17
2022-11-24T04:23:40.939Z,6.18
2022-11-24T04:24:43.993Z,6.18
2022-11-24T04:25:46.062Z,6.18
2022-11-24T04:26:48.949Z,6.18
2022-11-24T04:27:52.213Z,6.19
2022-11-24T04:28:55.195Z,6.19
2022-11-24T04:29:57.090Z,6.19
2022-11-24T04:31:04.399Z,6.20
2022-11-24T04:32:06.431Z,6.20
2022-11-24T04:33:09.287Z,6.19
2022-11-24T04:34:11.243Z,6.19
2022-11-24T04:35:14.554Z,6.19
2022-11-24T04:36:16.518Z,6.19
2022-11-24T04:37:19.418Z,6.18
2022-11-24T04:39:22.827Z,6.17
2022-11-24T04:39:44.955Z,6.16
2022-11-24T04:40:47.796Z,6.17
2022-11-24T04:41:49.796Z,6.17
2022-11-24T04:42:56.061Z,6.19
2022-11-24T04:43:57.894Z,6.17
2022-11-24T04:45:00.734Z,6.18
2022-11-24T04:46:04.031Z,6.19
2022-11-24T04:47:07.019Z,6.18
2022-11-24T04:48:08.919Z,6.18
2022-11-24T04:49:12.038Z,6.18
2022-11-24T04:50:14.053Z,6.19
2022-11-24T04:51:17.074Z,6.20
2022-11-24T04:52:20.796Z,6.20
2022-11-24T04:53:23.888Z,6.21
2022-11-24T04:54:25.774Z,6.21
2022-11-24T04:55:28.652Z,6.22
2022-11-24T04:56:30.685Z,6.21
2022-11-24T04:57:33.589Z,6.22
2022-11-24T04:58:35.566Z,6.21
2022-11-24T04:59:38.816Z,6.22
2022-11-24T05:00:41.390Z,6.21
2022-11-24T05:01:47.096Z,6.22
2022-11-24T05:02:49.085Z,6.21
2022-11-24T05:03:54.706Z,6.22
2022-11-24T05:04:56.638Z,6.21
2022-11-24T05:06:00.022Z,6.21
2022-11-24T05:07:02.000Z,6.22
2022-11-24T05:08:05.443Z,6.21
2022-11-24T05:09:07.938Z,6.21
2022-11-24T05:10:29.043Z,6.22
2022-11-24T05:11:32.223Z,6.22
2022-11-24T05:12:34.157Z,6.23
2022-11-24T05:13:37.075Z,6.23
2022-11-24T05:14:38.944Z,6.24
2022-11-24T05:15:43.023Z,6.25
2022-11-24T05:16:46.554Z,6.24
2022-11-24T05:17:49.447Z,6.24
2022-11-24T05:18:51.431Z,6.24
2022-11-24T05:19:54.313Z,6.25
2022-11-24T05:20:57.461Z,6.25
2022-11-24T05:22:00.394Z,6.26
2022-11-24T05:23:03.537Z,6.26
2022-11-24T05:24:07.169Z,6.26
2022-11-24T05:25:09.608Z,6.27
2022-11-24T05:26:12.599Z,6.26
2022-11-24T05:27:14.886Z,6.26
2022-11-24T05:28:19.031Z,6.27
2022-11-24T05:29:20.867Z,6.27
2022-11-24T05:30:24.435Z,6.27
2022-11-24T05:31:26.387Z,6.27
2022-11-24T05:32:30.670Z,6.27
2022-11-24T05:33:33.374Z,6.26
2022-11-24T05:34:36.504Z,6.27
2022-11-24T05:35:39.670Z,6.29
2022-11-24T05:36:54.128Z,6.29
2022-11-24T05:37:59.059Z,6.28
2022-11-24T05:39:01.000Z,6.29
2022-11-24T05:40:04.197Z,6.30
2022-11-24T05:41:06.639Z,6.31
2022-11-24T05:42:23.898Z,6.32
2022-11-24T05:43:26.931Z,6.30
2022-11-24T05:44:28.767Z,6.29
2022-11-24T05:45:31.669Z,6.30
2022-11-24T05:46:33.537Z,6.30
2022-11-24T05:47:38.689Z,6.30
2022-11-24T05:48:41.619Z,6.31
2022-11-24T05:49:43.768Z,6.30
2022-11-24T05:50:46.649Z,6.32
2022-11-24T05:51:48.474Z,6.33
2022-11-24T05:52:51.564Z,6.32
2022-11-24T05:53:53.438Z,6.32
2022-11-24T05:54:56.344Z,6.32
2022-11-24T05:55:58.258Z,6.33
2022-11-24T05:57:01.103Z,6.33
2022-11-24T05:58:05.251Z,6.32
2022-11-24T05:59:09.984Z,6.33
2022-11-24T06:00:13.330Z,6.32
2022-11-24T06:01:16.246Z,6.32
2022-11-24T06:02:19.161Z,6.32
2022-11-24T06:03:23.634Z,6.33
2022-11-24T06:04:25.603Z,6.34
2022-11-24T06:05:30.041Z,6.59
2022-11-24T06:06:31.917Z,7.14
2022-11-24T06:07:34.973Z,7.10
2022-11-24T06:08:37.967Z,7.08
2022-11-24T06:09:41.524Z,7.05
2022-11-24T06:10:44.510Z,7.01
2022-11-24T06:11:47.687Z,6.92
2022-11-24T06:12:51.427Z,6.85
2022-11-24T06:13:53.359Z,6.78
2022-11-24T06:14:56.511Z,6.71
2022-11-24T06:15:59.190Z,6.66
2022-11-24T06:17:02.579Z,6.62
2022-11-24T06:18:05.761Z,6.57
2022-11-24T06:19:09.663Z,6.55
2022-11-24T06:20:13.104Z,6.53
2022-11-24T06:21:17.235Z,6.50
2022-11-24T06:22:20.153Z,6.48
2022-11-24T06:23:22.013Z,6.46
2022-11-24T06:24:25.027Z,6.46
2022-11-24T06:25:27.320Z,6.45
2022-11-24T06:26:30.774Z,6.44
2022-11-24T06:27:32.749Z,6.43
2022-11-24T06:28:35.855Z,6.42
2022-11-24T06:29:37.999Z,6.41
2022-11-24T06:30:40.932Z,6.41
2022-11-24T06:31:42.970Z,6.42
2022-11-24T06:32:49.651Z,6.42
2022-11-24T06:33:52.190Z,6.40
2022-11-24T06:34:56.446Z,6.40
2022-11-24T06:36:01.595Z,6.40
2022-11-24T06:37:04.536Z,6.39
2022-11-24T06:38:07.555Z,6.38
2022-11-24T06:39:11.508Z,6.38
2022-11-24T06:40:14.434Z,6.38
2022-11-24T06:41:16.741Z,6.39
2022-11-24T06:42:19.732Z,6.39
2022-11-24T06:43:23.220Z,6.38
2022-11-24T06:44:26.087Z,6.37
2022-11-24T06:45:28.231Z,6.37
2022-11-24T06:46:31.383Z,6.38
2022-11-24T06:47:33.240Z,6.37
2022-11-24T06:48:36.488Z,6.37
2022-11-24T06:49:39.375Z,6.36
2022-11-24T06:50:42.641Z,6.36
2022-11-24T06:51:46.125Z,6.37
2022-11-24T06:52:48.131Z,6.37
2022-11-24T06:53:51.046Z,6.38
2022-11-24T06:54:54.168Z,6.38
2022-11-24T06:55:58.894Z,6.38
2022-11-24T06:57:01.833Z,6.37
2022-11-24T06:58:04.209Z,6.38
2022-11-24T06:59:07.068Z,6.38
2022-11-24T07:00:10.795Z,6.38
2022-11-24T07:01:15.922Z,6.37
2022-11-24T07:02:18.870Z,6.38
2022-11-24T07:03:20.856Z,6.38
2022-11-24T07:04:23.857Z,6.39
2022-11-24T07:05:25.973Z,6.39
2022-11-24T07:06:30.261Z,6.40
2022-11-24T07:07:33.468Z,6.40
2022-11-24T07:08:35.451Z,6.39
2022-11-24T07:09:38.476Z,6.40
2022-11-24T07:10:40.596Z,6.39
2022-11-24T07:11:43.576Z,6.39
2022-11-24T07:12:45.614Z,6.40
2022-11-24T07:13:49.289Z,6.39
2022-11-24T07:14:51.215Z,6.38
2022-11-24T07:15:54.195Z,6.40
2022-11-24T07:16:56.141Z,6.39
2022-11-24T07:17:59.231Z,6.39
2022-11-24T07:19:01.412Z,6.41
2022-11-24T07:20:05.127Z,6.43
2022-11-24T07:21:07.578Z,6.47
2022-11-24T07:22:11.768Z,6.51
2022-11-24T07:23:13.750Z,6.55
2022-11-24T07:24:16.826Z,6.57
2022-11-24T07:25:18.704Z,6.61
2022-11-24T07:26:22.251Z,6.63
2022-11-24T07:27:24.238Z,6.66
2022-11-24T07:28:27.235Z,6.69
2022-11-24T07:29:30.300Z,6.70
2022-11-24T07:30:32.435Z,6.73
2022-11-24T07:31:35.555Z,6.74
2022-11-24T07:32:37.447Z,6.76
2022-11-24T07:33:40.714Z,6.75
2022-11-24T07:34:42.595Z,6.76
2022-11-24T07:35:45.580Z,6.76
2022-11-24T07:36:48.674Z,6.77
2022-11-24T07:37:55.503Z,6.78
2022-11-24T07:38:58.807Z,6.78
2022-11-24T07:40:00.718Z,6.76
2022-11-24T07:41:04.346Z,6.77
2022-11-24T07:42:08.482Z,6.78
2022-11-24T07:43:13.520Z,6.78
2022-11-24T07:44:20.191Z,6.78
2022-11-24T07:45:22.079Z,6.78
2022-11-24T07:46:25.076Z,6.78
2022-11-24T07:47:27.142Z,6.80
2022-11-24T07:48:30.470Z,6.79
2022-11-24T07:49:33.348Z,6.80
2022-11-24T07:50:35.304Z,6.80
2022-11-24T07:51:38.168Z,6.80
2022-11-24T07:52:40.201Z,6.80
2022-11-24T07:53:44.897Z,6.79
2022-11-24T07:54:47.790Z,6.79
2022-11-24T07:55:54.321Z,6.79
2022-11-24T07:56:57.736Z,6.79
2022-11-24T07:58:01.526Z,6.79
2022-11-24T07:59:04.905Z,6.80
2022-11-24T08:00:09.094Z,6.79
2022-11-24T08:01:15.568Z,6.79
2022-11-24T08:02:38.598Z,6.80
2022-11-24T08:03:42.437Z,6.80
2022-11-24T08:04:45.611Z,6.79
2022-11-24T08:06:22.466Z,6.80
2022-11-24T08:07:17.289Z,6.80
2022-11-24T08:08:19.174Z,6.80
2022-11-24T08:09:23.491Z,6.80
2022-11-24T08:10:25.816Z,6.80
2022-11-24T08:11:31.321Z,6.80
2022-11-24T08:12:33.217Z,6.80
2022-11-24T08:13:36.472Z,6.81
2022-11-24T08:14:38.593Z,6.81
2022-11-24T08:15:41.475Z,6.82
2022-11-24T08:16:44.342Z,6.83
2022-11-24T08:17:46.232Z,6.83
2022-11-24T08:18:51.667Z,6.85
2022-11-24T08:19:54.603Z,6.85
2022-11-24T08:20:57.673Z,6.85
2022-11-24T08:22:00.657Z,6.86
2022-11-24T08:23:02.630Z,6.87
2022-11-24T08:24:06.296Z,6.87
2022-11-24T08:25:14.349Z,6.88
2022-11-24T08:26:18.915Z,6.86
2022-11-24T08:27:21.884Z,6.88
2022-11-24T08:28:24.115Z,6.86
2022-11-24T08:29:29.134Z,6.86
2022-11-24T08:30:31.641Z,6.86
2022-11-24T08:31:36.056Z,6.85
2022-11-24T08:32:39.112Z,6.84
2022-11-24T08:33:41.954Z,6.84
2022-11-24T08:34:45.063Z,6.84
2022-11-24T08:35:46.939Z,6.84
2022-11-24T08:36:49.804Z,6.84
2022-11-24T08:37:51.673Z,6.84
2022-11-24T08:38:58.517Z,6.83
2022-11-24T08:40:01.507Z,6.85
2022-11-24T08:41:07.126Z,6.84
2022-11-24T08:42:10.051Z,6.83
2022-11-24T08:43:11.979Z,6.85
2022-11-24T08:44:15.949Z,6.87
2022-11-24T08:45:21.236Z,6.86
2022-11-24T08:46:25.113Z,6.87
2022-11-24T08:47:27.039Z,6.88
2022-11-24T08:48:30.479Z,6.88
2022-11-24T08:49:33.576Z,6.87
2022-11-24T08:50:37.545Z,6.88
2022-11-24T08:51:40.452Z,6.87
2022-11-24T08:52:42.388Z,6.87
2022-11-24T08:53:45.307Z,6.89
2022-11-24T08:54:48.396Z,6.88
2022-11-24T08:55:50.412Z,6.89
2022-11-24T08:56:54.837Z,6.89
2022-11-24T08:57:57.668Z,6.88
2022-11-24T08:59:00.692Z,6.88
2022-11-24T09:00:04.369Z,6.87
2022-11-24T09:01:08.659Z,6.89
2022-11-24T09:02:11.957Z,6.88
2022-11-24T09:03:15.506Z,6.87
2022-11-24T09:04:18.474Z,6.89
2022-11-24T09:05:50.012Z,6.88
2022-11-24T09:06:43.214Z,6.89
2022-11-24T09:07:45.140Z,6.91
2022-11-24T09:08:48.608Z,6.91
2022-11-24T09:09:51.557Z,6.91
2022-11-24T09:10:54.731Z,6.92
2022-11-24T09:11:59.123Z,6.94
2022-11-24T09:13:01.039Z,6.94
2022-11-24T09:14:04.281Z,6.96
2022-11-24T09:15:08.138Z,6.96
2022-11-24T09:16:12.396Z,6.97
2022-11-24T09:17:15.354Z,6.98
2022-11-24T09:18:17.247Z,6.99
2022-11-24T09:19:20.546Z,6.98
2022-11-24T09:20:23.406Z,6.98
2022-11-24T09:21:25.668Z,6.98
2022-11-24T09:22:28.622Z,6.98
2022-11-24T09:23:31.557Z,6.97
2022-11-24T09:24:34.464Z,6.99
2022-11-24T09:25:36.356Z,6.99
2022-11-24T09:26:46.170Z,7.00
2022-11-24T09:27:51.072Z,7.00
2022-11-24T09:28:55.950Z,7.00
2022-11-24T09:29:57.840Z,7.00
2022-11-24T09:31:04.627Z,7.01
2022-11-24T09:32:07.559Z,7.01
2022-11-24T09:33:09.544Z,7.01
2022-11-24T09:34:14.925Z,7.01
2022-11-24T09:35:17.161Z,7.02
2022-11-24T09:36:21.035Z,7.03
2022-11-24T09:37:28.117Z,7.02
2022-11-24T09:38:31.728Z,7.03
2022-11-24T09:39:34.904Z,7.03
2022-11-24T09:40:37.079Z,7.04
2022-11-24T09:41:49.595Z,7.05
2022-11-24T09:43:01.693Z,7.06
2022-11-24T09:44:11.538Z,7.06
2022-11-24T09:45:57.009Z,7.07
2022-11-24T09:47:02.616Z,7.08
2022-11-24T09:48:12.341Z,7.08
2022-11-24T09:49:19.872Z,7.09
2022-11-24T09:50:23.810Z,7.11
2022-11-24T09:51:31.851Z,7.11
2022-11-24T09:52:41.519Z,7.10
2022-11-24T09:53:48.605Z,7.11
2022-11-24T09:54:53.825Z,7.11
2022-11-24T09:55:59.745Z,7.10
2022-11-24T09:57:05.807Z,7.11
2022-11-24T09:58:43.411Z,7.11
2022-11-24T09:59:45.324Z,7.10
2022-11-24T10:00:51.525Z,7.09
2022-11-24T10:01:55.826Z,7.09
2022-11-24T10:02:59.114Z,7.08
2022-11-24T10:04:06.295Z,7.06
2022-11-24T10:05:09.068Z,7.05
2022-11-24T10:06:23.219Z,7.04
2022-11-24T10:07:31.557Z,7.03
2022-11-24T10:08:48.110Z,7.01
2022-11-24T10:10:00.410Z,7.01
2022-11-24T10:11:11.895Z,6.99
2022-11-24T10:12:35.656Z,6.99
2022-11-24T10:14:08.215Z,6.96
2022-11-24T10:15:38.664Z,6.93
2022-11-24T10:16:51.999Z,6.93
2022-11-24T10:18:17.006Z,6.93
2022-11-24T10:19:36.984Z,6.91
2022-11-24T10:20:53.274Z,6.89
2022-11-24T10:22:10.246Z,6.88
2022-11-24T10:23:39.955Z,6.86
2022-11-24T10:25:08.287Z,6.84
2022-11-24T10:26:19.160Z,6.79
2022-11-24T10:27:27.892Z,6.76
2022-11-24T10:28:40.894Z,6.76
2022-11-24T10:29:46.562Z,6.75
2022-11-24T10:30:50.923Z,6.75
2022-11-24T10:31:56.195Z,6.76
2022-11-24T10:33:04.976Z,6.76
2022-11-24T10:34:13.962Z,6.75
2022-11-24T10:35:20.098Z,6.75
2022-11-24T10:36:29.964Z,6.75
2022-11-24T10:37:36.548Z,6.75
2022-11-24T10:38:46.756Z,6.75
2022-11-24T10:40:00.195Z,6.73
2022-11-24T10:41:08.768Z,6.72
2022-11-24T10:42:19.530Z,6.73
2022-11-24T10:43:22.577Z,6.71
2022-11-24T10:44:24.788Z,6.70
2022-11-24T10:45:30.453Z,6.69
2022-11-24T10:46:39.033Z,6.69
2022-11-24T10:47:43.446Z,6.70
2022-11-24T10:48:51.717Z,6.70
2022-11-24T10:50:01.119Z,6.71
2022-11-24T10:51:27.965Z,6.72
2022-11-24T10:52:35.735Z,6.73
2022-11-24T10:53:42.913Z,6.74
2022-11-24T10:54:56.941Z,6.76
2022-11-24T10:56:01.028Z,6.79
2022-11-24T10:57:05.323Z,6.79
2022-11-24T10:58:17.329Z,6.80
2022-11-24T10:59:39.013Z,6.81
2022-11-24T11:00:42.395Z,6.81
2022-11-24T11:01:45.408Z,6.81
2022-11-24T11:02:49.671Z,6.80
2022-11-24T11:03:54.804Z,6.75
2022-11-24T11:04:57.757Z,6.74
2022-11-24T11:06:04.455Z,6.74
2022-11-24T11:07:18.554Z,6.75
2022-11-24T11:08:27.148Z,6.76
2022-11-24T11:09:29.056Z,6.78
2022-11-24T11:10:32.021Z,6.78
2022-11-24T11:11:35.947Z,6.78
2022-11-24T11:12:45.402Z,6.80
2022-11-24T11:14:01.573Z,6.80
2022-11-24T11:15:25.321Z,6.81
2022-11-24T11:16:38.099Z,6.80
2022-11-24T11:17:41.295Z,6.80
2022-11-24T11:18:49.814Z,6.80
2022-11-24T11:20:00.268Z,6.80
2022-11-24T11:21:05.039Z,6.81
2022-11-24T11:22:17.231Z,6.81
2022-11-24T11:23:27.697Z,6.81
2022-11-24T11:24:31.127Z,6.80
2022-11-24T11:25:38.136Z,6.79
2022-11-24T11:26:42.304Z,6.80
2022-11-24T11:27:45.068Z,6.80
2022-11-24T11:34:48.946Z,6.83
2022-11-24T11:35:52.584Z,6.84
2022-11-24T11:36:57.157Z,6.84
2022-11-24T11:38:02.955Z,6.84
2022-11-24T11:39:06.382Z,6.85
2022-11-24T11:40:16.338Z,6.85
2022-11-24T11:41:23.596Z,6.84
2022-11-24T11:44:06.030Z,6.84
2022-11-24T11:45:15.078Z,6.85
2022-11-24T11:46:17.240Z,6.83
2022-11-24T11:47:28.330Z,6.83
2022-11-24T11:48:42.684Z,6.82
2022-11-24T11:49:48.686Z,6.81
2022-11-24T11:52:46.640Z,6.83
2022-11-24T11:53:56.684Z,6.83
2022-11-24T11:55:34.645Z,6.83
2022-11-24T11:56:44.345Z,6.84
2022-11-24T11:57:56.719Z,6.85
2022-11-24T11:59:41.357Z,6.85
2022-11-24T12:00:51.842Z,6.86
2022-11-24T12:02:16.787Z,6.86
2022-11-24T12:03:51.560Z,6.86
2022-11-24T12:04:57.342Z,6.88
2022-11-24T12:06:15.345Z,6.88
2022-11-24T12:07:40.530Z,6.89
2022-11-24T12:09:18.715Z,6.89
2022-11-24T12:10:24.322Z,6.89
2022-11-24T12:11:34.190Z,6.90
2022-11-24T12:13:04.221Z,6.89
2022-11-24T12:14:24.078Z,6.89
2022-11-24T12:15:36.462Z,6.90
2022-11-24T12:16:47.702Z,6.92
2022-11-24T12:17:56.164Z,6.91
2022-11-24T12:19:15.980Z,6.92
2022-11-24T12:20:41.168Z,6.91
2022-11-24T12:21:53.507Z,6.90
2022-11-24T12:23:05.087Z,6.91
2022-11-24T12:24:15.112Z,6.91
2022-11-24T12:25:26.589Z,6.90
2022-11-24T12:26:39.976Z,6.91
2022-11-24T12:27:56.158Z,6.91
2022-11-24T12:29:11.646Z,6.94
2022-11-24T12:30:17.192Z,6.94
2022-11-24T12:31:28.575Z,6.97
2022-11-24T12:32:49.425Z,6.98
2022-11-24T12:34:11.657Z,6.98
2022-11-24T12:35:23.683Z,6.98
2022-11-24T12:36:41.838Z,7.01
2022-11-24T12:37:56.402Z,7.03
2022-11-24T12:39:06.981Z,7.04
2022-11-24T12:40:16.795Z,7.02
2022-11-24T12:41:44.136Z,7.01
2022-11-24T12:42:56.276Z,7.01
2022-11-24T12:44:01.392Z,7.02
2022-11-24T12:45:15.740Z,7.01
2022-11-24T12:46:24.322Z,7.01
2022-11-24T12:47:39.742Z,7.02
2022-11-24T12:48:57.231Z,7.01
2022-11-24T12:50:07.136Z,7.01
2022-11-24T12:51:18.514Z,7.01
2022-11-24T12:52:26.341Z,7.02
2022-11-24T12:53:33.036Z,7.02
2022-11-24T12:54:40.433Z,7.02
2022-11-24T12:55:44.890Z,7.03
2022-11-24T12:56:54.371Z,7.02
2022-11-24T12:58:10.654Z,7.03
2022-11-24T12:59:26.335Z,7.02
2022-11-24T13:00:35.685Z,7.02
2022-11-24T13:01:47.041Z,7.01
2022-11-24T13:03:05.564Z,7.02
2022-11-24T13:04:19.601Z,7.02
2022-11-24T13:05:33.069Z,7.02
2022-11-24T13:08:08.932Z,7.02
2022-11-24T13:09:12.841Z,7.02
2022-11-24T13:11:59.152Z,6.99
2022-11-24T13:13:06.703Z,7.00
2022-11-24T13:14:17.013Z,7.02
2022-11-24T13:15:43.528Z,7.02
2022-11-24T13:18:44.252Z,7.04
2022-11-24T13:19:46.505Z,7.05
2022-11-24T13:20:50.806Z,7.06
2022-11-24T13:22:11.486Z,7.05
2022-11-24T13:23:25.934Z,7.06
2022-11-24T13:24:30.858Z,7.06
2022-11-24T13:25:35.691Z,7.06
2022-11-24T13:26:47.333Z,7.06
2022-11-24T13:27:53.325Z,7.06
2022-11-24T13:29:08.920Z,7.06
2022-11-24T13:30:59.503Z,7.06
2022-11-24T13:32:51.288Z,7.07
2022-11-24T13:33:54.213Z,7.07
2022-11-24T13:35:03.736Z,7.07
2022-11-24T13:36:54.727Z,7.06
2022-11-24T13:37:56.733Z,7.07
2022-11-24T13:39:00.823Z,7.07
2022-11-24T13:40:54.622Z,7.07
2022-11-24T13:42:44.056Z,7.08
2022-11-24T13:44:18.345Z,7.08
2022-11-24T13:45:52.331Z,7.09
2022-11-24T13:47:05.637Z,7.08
2022-11-24T13:49:03.826Z,7.08
2022-11-24T13:50:09.476Z,7.07
2022-11-24T13:51:23.871Z,7.07
2022-11-24T13:52:43.798Z,7.08
2022-11-24T13:53:50.565Z,7.08
2022-11-24T13:54:52.923Z,7.06
2022-11-24T13:55:59.469Z,7.05
2022-11-24T13:57:36.272Z,7.05
2022-11-24T13:58:40.842Z,7.05
2022-11-24T13:59:43.040Z,7.05
2022-11-24T14:01:03.244Z,7.05
2022-11-24T14:02:23.671Z,7.05
2022-11-24T14:03:30.620Z,7.05
2022-11-24T14:04:35.802Z,7.05
2022-11-24T14:05:39.223Z,7.06
2022-11-24T14:06:45.933Z,7.06
2022-11-24T14:07:52.249Z,7.05
2022-11-24T14:08:55.513Z,7.06
2022-11-24T14:09:59.012Z,7.06
2022-11-24T14:11:02.935Z,7.08
2022-11-24T14:12:14.135Z,7.08
2022-11-24T14:13:17.442Z,7.08
2022-11-24T14:14:22.796Z,7.06
2022-11-24T14:15:29.447Z,7.06
2022-11-24T14:16:32.471Z,7.05
2022-11-24T14:17:37.869Z,7.05
2022-11-24T14:18:42.384Z,7.06
2022-11-24T14:19:46.877Z,7.05
2022-11-24T14:20:49.061Z,7.05
2022-11-24T14:21:52.071Z,7.04
2022-11-24T14:22:55.358Z,7.05
2022-11-24T14:24:01.527Z,7.05
2022-11-24T14:25:04.225Z,7.04
2022-11-24T14:26:07.125Z,7.05
2022-11-24T14:27:15.636Z,7.04
2022-11-24T14:28:24.431Z,7.05
2022-11-24T14:29:28.360Z,7.05
2022-11-24T14:30:31.329Z,7.06
2022-11-24T14:31:35.603Z,7.06
2022-11-24T14:32:38.744Z,7.06
2022-11-24T14:33:40.649Z,7.05
2022-11-24T14:34:43.615Z,7.05
2022-11-24T14:35:48.365Z,7.04
2022-11-24T14:36:54.414Z,7.04
2022-11-24T14:37:58.910Z,7.03
2022-11-24T14:39:00.849Z,7.01
2022-11-24T14:40:03.948Z,7.17
2022-11-24T14:41:19.199Z,7.10
2022-11-24T14:42:24.146Z,7.01
2022-11-24T14:43:29.805Z,6.97
2022-11-24T14:44:36.469Z,6.94
2022-11-24T14:45:39.198Z,6.92
2022-11-24T14:46:42.217Z,6.88
2022-11-24T14:47:46.307Z,6.87
2022-11-24T14:48:50.449Z,6.86
2022-11-24T14:49:54.375Z,6.85
2022-11-24T14:51:08.389Z,6.84
2022-11-24T14:52:15.242Z,6.84
2022-11-24T14:53:26.052Z,6.84
2022-11-24T14:54:30.021Z,6.84
2022-11-24T14:55:35.338Z,6.84